createdAt,value
2022-09-24T00:01:36.158Z,99.90
2022-09-24T00:04:07.257Z,99.90
2022-09-24T00:06:38.347Z,99.90
2022-09-24T00:09:05.327Z,99.90
2022-09-24T00:11:33.005Z,99.90
2022-09-24T00:14:00.634Z,99.90
2022-09-24T00:16:31.839Z,99.90
2022-09-24T00:19:00.073Z,99.90
2022-09-24T00:21:33.896Z,99.90
2022-09-24T00:24:10.738Z,99.90
2022-09-24T00:26:50.062Z,99.90
2022-09-24T00:29:20.262Z,99.90
2022-09-24T00:31:48.401Z,99.90
2022-09-24T00:34:15.881Z,99.90
2022-09-24T00:36:42.807Z,99.90
2022-09-24T00:39:10.209Z,99.90
2022-09-24T00:41:38.432Z,99.90
2022-09-24T00:44:40.940Z,99.90
2022-09-24T00:47:16.326Z,99.90
2022-09-24T00:49:44.436Z,99.90
2022-09-24T00:52:11.804Z,99.90
2022-09-24T00:54:39.776Z,99.90
2022-09-24T00:57:07.457Z,99.90
2022-09-24T00:59:35.766Z,99.90
2022-09-24T01:02:03.658Z,99.90
2022-09-24T01:04:30.695Z,99.90
2022-09-24T01:06:58.307Z,99.90
2022-09-24T01:09:28.122Z,99.90
2022-09-24T01:12:06.704Z,99.90
2022-09-24T01:15:02.604Z,99.90
2022-09-24T01:17:53.029Z,99.90
2022-09-24T01:20:46.435Z,99.90
2022-09-24T01:23:34.906Z,99.90
2022-09-24T01:26:29.050Z,99.90
2022-09-24T01:29:23.981Z,99.90
2022-09-24T01:32:02.556Z,99.90
2022-09-24T01:34:39.989Z,99.90
2022-09-24T01:37:08.219Z,99.90
2022-09-24T01:39:37.842Z,99.90
2022-09-24T01:42:06.869Z,99.90
2022-09-24T01:44:35.382Z,99.90
2022-09-24T01:47:06.284Z,99.90
2022-09-24T01:49:33.184Z,99.90
2022-09-24T01:52:06.990Z,99.90
2022-09-24T01:54:42.181Z,99.90
2022-09-24T01:57:14.748Z,99.90
2022-09-24T02:00:00.121Z,99.90
2022-09-24T02:02:56.343Z,99.90
2022-09-24T02:05:30.369Z,99.90
2022-09-24T02:08:01.186Z,99.90
2022-09-24T02:10:32.551Z,99.90
2022-09-24T02:13:06.771Z,99.90
2022-09-24T02:15:37.456Z,99.90
2022-09-24T02:18:08.447Z,99.90
2022-09-24T02:20:38.731Z,99.90
2022-09-24T02:23:08.155Z,99.90
2022-09-24T02:25:42.075Z,99.90
2022-09-24T02:28:09.800Z,99.90
2022-09-24T02:30:42.048Z,99.90
2022-09-24T02:33:32.427Z,99.90
2022-09-24T02:35:59.752Z,99.90
2022-09-24T02:38:27.181Z,99.90
2022-09-24T02:40:55.347Z,99.90
2022-09-24T02:43:22.545Z,99.90
2022-09-24T02:45:49.579Z,99.90
2022-09-24T02:48:16.455Z,99.90
2022-09-24T02:50:43.538Z,99.90
2022-09-24T02:53:10.488Z,99.90
2022-09-24T02:55:37.388Z,99.90
2022-09-24T02:58:04.461Z,99.90
2022-09-24T03:00:31.333Z,99.90
2022-09-24T03:02:58.310Z,99.90
2022-09-24T03:05:25.464Z,99.90
2022-09-24T03:07:52.458Z,99.90
2022-09-24T03:10:19.502Z,99.90
2022-09-24T03:12:46.607Z,99.90
2022-09-24T03:15:13.498Z,99.90
2022-09-24T03:17:40.397Z,99.90
2022-09-24T03:20:07.906Z,99.90
2022-09-24T03:22:34.804Z,99.90
2022-09-24T03:25:03.198Z,99.90
2022-09-24T03:27:30.677Z,99.90
2022-09-24T03:30:16.480Z,99.90
2022-09-24T03:32:43.816Z,99.90
2022-09-24T03:35:11.835Z,99.90
2022-09-24T03:37:38.746Z,99.90
2022-09-24T03:40:08.075Z,99.90
2022-09-24T03:42:35.316Z,99.90
2022-09-24T03:45:02.222Z,99.90
2022-09-24T03:47:31.344Z,99.90
2022-09-24T03:49:58.342Z,99.90
2022-09-24T03:52:26.295Z,99.90
2022-09-24T03:54:53.444Z,99.90
2022-09-24T03:57:20.653Z,99.90
2022-09-24T03:59:47.664Z,99.90
2022-09-24T04:02:14.755Z,99.90
2022-09-24T04:04:42.083Z,99.90
2022-09-24T04:07:08.979Z,99.90
2022-09-24T04:09:36.179Z,99.90
2022-09-24T04:12:03.321Z,99.90
2022-09-24T04:14:30.194Z,99.90
2022-09-24T04:16:58.948Z,99.90
2022-09-24T04:19:26.867Z,99.90
2022-09-24T04:21:53.756Z,99.90
2022-09-24T04:24:21.272Z,99.90
2022-09-24T04:26:48.499Z,99.90
2022-09-24T04:29:15.529Z,99.90
2022-09-24T04:31:42.686Z,99.90
2022-09-24T04:34:10.328Z,99.90
2022-09-24T04:36:37.296Z,99.90
2022-09-24T04:39:04.466Z,99.90
2022-09-24T04:41:31.417Z,99.90
2022-09-24T04:43:58.547Z,99.90
2022-09-24T04:46:25.752Z,99.90
2022-09-24T04:48:53.344Z,99.90
2022-09-24T04:51:21.527Z,99.90
2022-09-24T04:53:50.625Z,99.90
2022-09-24T04:56:17.753Z,99.90
2022-09-24T04:58:44.774Z,99.90
2022-09-24T05:01:13.423Z,99.90
2022-09-24T05:03:41.037Z,99.90
2022-09-24T05:06:07.967Z,99.90
2022-09-24T05:08:35.313Z,99.90
2022-09-24T05:11:02.585Z,99.90
2022-09-24T05:13:29.501Z,99.90
2022-09-24T05:15:56.631Z,99.90
2022-09-24T05:18:23.606Z,99.90
2022-09-24T05:20:50.590Z,99.90
2022-09-24T05:23:18.065Z,99.90
2022-09-24T05:26:03.615Z,99.90
2022-09-24T05:28:33.206Z,99.90
2022-09-24T05:31:00.369Z,99.90
2022-09-24T05:33:27.336Z,99.90
2022-09-24T05:35:58.044Z,99.90
2022-09-24T05:38:25.267Z,99.90
2022-09-24T05:40:52.506Z,99.90
2022-09-24T05:43:19.926Z,99.90
2022-09-24T05:45:46.843Z,99.90
2022-09-24T05:48:13.764Z,99.90
2022-09-24T05:50:42.569Z,99.90
2022-09-24T05:53:09.619Z,99.90
2022-09-24T05:55:36.847Z,99.90
2022-09-24T05:58:05.378Z,99.90
2022-09-24T06:00:33.282Z,99.90
2022-09-24T06:03:13.775Z,99.90
2022-09-24T06:05:48.856Z,99.90
2022-09-24T06:08:20.769Z,99.90
2022-09-24T06:10:48.660Z,99.90
2022-09-24T06:13:18.891Z,99.90
2022-09-24T06:15:46.381Z,99.90
2022-09-24T06:18:13.631Z,99.90
2022-09-24T06:20:41.740Z,99.90
2022-09-24T06:23:08.686Z,99.90
2022-09-24T06:25:36.126Z,99.90
2022-09-24T06:28:04.729Z,99.90
2022-09-24T06:30:38.380Z,99.90
2022-09-24T06:33:08.559Z,99.90
2022-09-24T06:35:42.902Z,99.90
2022-09-24T06:38:15.534Z,99.90
2022-09-24T06:40:45.586Z,99.90
2022-09-24T06:43:13.919Z,99.90
2022-09-24T06:45:43.039Z,99.90
2022-09-24T06:48:12.371Z,99.90
2022-09-24T06:50:42.322Z,99.90
2022-09-24T06:53:11.074Z,99.90
2022-09-24T06:55:39.353Z,99.90
2022-09-24T06:58:12.332Z,99.90
2022-09-24T07:00:39.965Z,99.90
2022-09-24T07:03:07.778Z,99.90
2022-09-24T07:05:38.433Z,99.90
2022-09-24T07:08:09.722Z,99.90
2022-09-24T07:10:37.880Z,99.90
2022-09-24T07:13:04.793Z,99.90
2022-09-24T07:15:31.948Z,99.90
2022-09-24T07:17:58.886Z,99.90
2022-09-24T07:20:29.226Z,99.90
2022-09-24T07:22:56.503Z,99.90
2022-09-24T07:25:23.759Z,99.90
2022-09-24T07:27:50.708Z,99.90
2022-09-24T07:30:18.162Z,99.90
2022-09-24T07:32:45.064Z,99.90
2022-09-24T07:35:12.002Z,99.90
2022-09-24T07:37:39.123Z,99.90
2022-09-24T07:40:06.625Z,99.90
2022-09-24T07:42:33.576Z,99.90
2022-09-24T07:45:00.964Z,99.90
2022-09-24T07:47:27.862Z,99.90
2022-09-24T07:49:54.762Z,99.90
2022-09-24T07:52:22.187Z,99.90
2022-09-24T07:54:49.656Z,99.90
2022-09-24T07:57:16.558Z,99.90
2022-09-24T07:59:44.864Z,99.90
2022-09-24T08:02:17.229Z,99.90
2022-09-24T08:04:44.879Z,99.90
2022-09-24T08:07:12.974Z,99.90
2022-09-24T08:09:40.121Z,99.90
2022-09-24T08:12:08.000Z,99.90
2022-09-24T08:14:35.189Z,99.90
2022-09-24T08:17:02.827Z,99.90
2022-09-24T08:19:33.166Z,99.90
2022-09-24T08:22:00.150Z,99.90
2022-09-24T08:24:27.047Z,99.90
2022-09-24T08:26:54.130Z,99.90
2022-09-24T08:29:21.075Z,99.90
2022-09-24T08:31:47.979Z,99.90
2022-09-24T08:34:15.697Z,99.90
2022-09-24T08:36:43.366Z,99.90
2022-09-24T08:39:13.576Z,99.90
2022-09-24T08:42:00.401Z,99.90
2022-09-24T08:45:02.350Z,99.80
2022-09-24T08:47:45.843Z,98.40
2022-09-24T08:50:34.103Z,96.60
2022-09-24T08:53:14.026Z,96.00
2022-09-24T08:55:49.745Z,96.40
2022-09-24T08:58:44.798Z,97.10
2022-09-24T09:01:11.948Z,98.10
2022-09-24T09:03:39.292Z,97.70
2022-09-24T09:06:28.275Z,98.00
2022-09-24T09:09:07.497Z,97.40
2022-09-24T09:11:36.969Z,96.80
2022-09-24T09:14:09.829Z,97.10
2022-09-24T09:16:54.803Z,96.50
2022-09-24T09:19:30.033Z,95.20
2022-09-24T09:22:13.369Z,95.90
2022-09-24T09:24:49.555Z,95.60
2022-09-24T09:27:18.232Z,96.60
2022-09-24T09:29:57.493Z,95.40
2022-09-24T09:32:35.319Z,95.50
2022-09-24T09:35:18.881Z,96.10
2022-09-24T09:37:50.759Z,94.80
2022-09-24T09:40:32.161Z,94.40
2022-09-24T09:43:02.963Z,94.20
2022-09-24T09:45:39.504Z,94.10
2022-09-24T09:48:12.723Z,93.60
2022-09-24T09:50:41.615Z,94.00
2022-09-24T09:53:26.385Z,93.40
2022-09-24T09:56:04.273Z,92.70
2022-09-24T09:58:36.843Z,93.40
2022-09-24T10:01:10.886Z,93.00
2022-09-24T10:03:46.760Z,94.30
2022-09-24T10:06:26.773Z,92.10
2022-09-24T10:08:54.325Z,92.40
2022-09-24T10:11:22.616Z,92.90
2022-09-24T10:14:03.388Z,92.80
2022-09-24T10:16:31.232Z,93.10
2022-09-24T10:18:58.183Z,91.50
2022-09-24T10:21:35.881Z,91.50
2022-09-24T10:24:09.200Z,92.30
2022-09-24T10:26:45.069Z,91.30
2022-09-24T10:29:35.828Z,90.00
2022-09-24T10:32:07.445Z,87.70
2022-09-24T10:34:34.828Z,89.80
2022-09-24T10:37:13.826Z,90.90
2022-09-24T10:39:41.730Z,87.50
2022-09-24T10:42:26.442Z,88.50
2022-09-24T10:44:55.267Z,90.20
2022-09-24T10:47:43.638Z,88.00
2022-09-24T10:50:31.945Z,87.50
2022-09-24T10:53:07.223Z,89.70
2022-09-24T10:56:06.461Z,87.30
2022-09-24T10:59:07.891Z,87.00
2022-09-24T11:01:49.186Z,90.00
2022-09-24T11:04:25.541Z,86.10
2022-09-24T11:06:55.456Z,84.80
2022-09-24T11:09:25.355Z,86.90
2022-09-24T11:12:05.861Z,88.40
2022-09-24T11:14:54.855Z,88.20
2022-09-24T11:17:36.941Z,88.30
2022-09-24T11:20:25.943Z,87.50
2022-09-24T11:23:27.125Z,87.30
2022-09-24T11:26:14.943Z,88.00
2022-09-24T11:29:06.162Z,89.60
2022-09-24T11:31:42.624Z,88.70
2022-09-24T11:34:33.732Z,88.70
2022-09-24T11:37:12.886Z,87.60
2022-09-24T11:40:13.133Z,90.30
2022-09-24T11:43:22.538Z,90.00
2022-09-24T11:46:23.297Z,89.10
2022-09-24T11:49:12.178Z,87.80
2022-09-24T11:51:47.929Z,90.80
2022-09-24T11:54:22.704Z,90.30
2022-09-24T11:56:53.970Z,90.00
2022-09-24T11:59:36.828Z,88.30
2022-09-24T12:02:26.277Z,85.70
2022-09-24T12:05:06.864Z,83.20
2022-09-24T12:07:43.771Z,86.20
2022-09-24T12:10:25.018Z,86.90
2022-09-24T12:12:57.912Z,83.20
2022-09-24T12:15:30.841Z,79.30
2022-09-24T12:18:07.470Z,79.60
2022-09-24T12:20:46.956Z,80.90
2022-09-24T12:23:18.501Z,80.60
2022-09-24T12:25:49.230Z,81.60
2022-09-24T12:28:38.966Z,83.40
2022-09-24T12:31:36.255Z,82.60
2022-09-24T12:34:21.819Z,83.70
2022-09-24T12:36:57.446Z,84.20
2022-09-24T12:39:33.704Z,87.10
2022-09-24T12:42:05.676Z,88.60
2022-09-24T12:44:39.846Z,87.40
2022-09-24T12:47:25.747Z,87.00
2022-09-24T12:49:56.782Z,87.10
2022-09-24T12:52:43.579Z,86.90
2022-09-24T12:55:31.764Z,87.80
2022-09-24T12:58:03.314Z,86.30
2022-09-24T13:00:35.270Z,87.90
2022-09-24T13:03:03.335Z,88.40
2022-09-24T13:05:42.492Z,87.40
2022-09-24T13:08:20.076Z,86.80
2022-09-24T13:11:05.681Z,88.30
2022-09-24T13:13:40.939Z,89.60
2022-09-24T13:16:18.689Z,90.30
2022-09-24T13:19:27.234Z,89.60
2022-09-24T13:21:59.581Z,89.10
2022-09-24T13:24:32.173Z,90.10
2022-09-24T13:27:23.042Z,90.60
2022-09-24T13:30:05.569Z,90.80
2022-09-24T13:32:37.023Z,90.70
2022-09-24T13:35:11.034Z,91.10
2022-09-24T13:37:47.261Z,91.60
2022-09-24T13:40:21.607Z,91.20
2022-09-24T13:43:10.785Z,92.10
2022-09-24T13:45:42.724Z,92.00
2022-09-24T13:48:33.848Z,91.60
2022-09-24T13:51:04.115Z,91.20
2022-09-24T13:53:42.204Z,91.30
2022-09-24T13:56:15.507Z,91.30
2022-09-24T13:58:43.905Z,91.10
2022-09-24T14:01:17.055Z,90.30
2022-09-24T14:03:54.570Z,90.30
2022-09-24T14:06:35.705Z,87.70
2022-09-24T14:09:03.417Z,87.60
2022-09-24T14:11:30.631Z,89.10
2022-09-24T14:13:59.254Z,89.90
2022-09-24T14:16:26.643Z,90.30
2022-09-24T14:19:06.171Z,87.40
2022-09-24T14:21:40.264Z,83.70
2022-09-24T14:24:19.566Z,83.10
2022-09-24T14:27:01.635Z,82.40
2022-09-24T14:29:48.698Z,81.80
2022-09-24T14:32:26.527Z,82.80
2022-09-24T14:34:58.114Z,84.40
2022-09-24T14:37:27.775Z,85.60
2022-09-24T14:40:05.219Z,82.80
2022-09-24T14:42:40.494Z,85.70
2022-09-24T14:45:10.256Z,84.70
2022-09-24T14:47:37.782Z,85.20
2022-09-24T14:50:24.801Z,85.60
2022-09-24T14:53:00.705Z,84.00
2022-09-24T14:55:39.740Z,85.20
2022-09-24T14:58:31.773Z,83.00
2022-09-24T15:01:07.095Z,85.60
2022-09-24T15:03:41.674Z,86.10
2022-09-24T15:06:14.754Z,87.30
2022-09-24T15:08:42.178Z,86.90
2022-09-24T15:11:17.174Z,85.70
2022-09-24T15:13:45.497Z,87.30
2022-09-24T15:16:22.068Z,86.40
2022-09-24T15:19:17.605Z,87.40
2022-09-24T15:21:45.352Z,88.70
2022-09-24T15:24:12.481Z,89.70
2022-09-24T15:26:42.221Z,90.00
2022-09-24T15:29:17.335Z,90.10
2022-09-24T15:31:44.506Z,91.00
2022-09-24T15:34:12.885Z,91.80
2022-09-24T15:36:41.468Z,91.10
2022-09-24T15:39:11.152Z,91.30
2022-09-24T15:41:38.163Z,92.10
2022-09-24T15:44:06.486Z,92.50
2022-09-24T15:46:34.469Z,92.70
2022-09-24T15:49:01.390Z,93.40
2022-09-24T15:51:28.322Z,93.70
2022-09-24T15:53:55.685Z,93.90
2022-09-24T15:56:22.587Z,94.30
2022-09-24T15:58:50.738Z,94.80
2022-09-24T16:01:18.901Z,95.20
2022-09-24T16:03:45.946Z,95.80
2022-09-24T16:06:14.132Z,96.40
2022-09-24T16:08:42.532Z,96.90
2022-09-24T16:11:09.641Z,97.40
2022-09-24T16:13:37.069Z,98.20
2022-09-24T16:16:06.764Z,99.00
2022-09-24T16:18:33.923Z,99.60
2022-09-24T16:21:05.514Z,99.90
2022-09-24T16:23:32.608Z,99.90
2022-09-24T16:26:00.324Z,99.90
2022-09-24T16:28:28.306Z,99.90
2022-09-24T16:30:55.548Z,99.90
2022-09-24T16:33:22.632Z,99.90
2022-09-24T16:35:49.548Z,99.90
2022-09-24T16:38:22.569Z,99.90
2022-09-24T16:40:52.106Z,99.90
2022-09-24T16:43:19.383Z,99.90
2022-09-24T16:45:46.285Z,99.90
2022-09-24T16:48:13.656Z,99.90
2022-09-24T16:50:41.001Z,99.90
2022-09-24T16:53:08.020Z,99.90
2022-09-24T16:55:35.055Z,99.90
2022-09-24T16:58:02.172Z,99.90
2022-09-24T17:00:29.371Z,99.90
2022-09-24T17:02:56.351Z,99.90
2022-09-24T17:05:23.507Z,99.90
2022-09-24T17:07:50.388Z,99.90
2022-09-24T17:10:18.196Z,99.90
2022-09-24T17:12:48.342Z,99.90
2022-09-24T17:15:19.379Z,99.90
2022-09-24T17:17:50.165Z,99.90
2022-09-24T17:20:19.091Z,99.90
2022-09-24T17:22:48.447Z,99.90
2022-09-24T17:25:16.019Z,99.90
2022-09-24T17:27:43.143Z,99.90
2022-09-24T17:30:11.067Z,99.90
2022-09-24T17:32:38.016Z,99.90
2022-09-24T17:35:05.991Z,99.90
2022-09-24T17:37:33.306Z,99.90
2022-09-24T17:40:00.204Z,99.90
2022-09-24T17:42:27.138Z,99.90
2022-09-24T17:44:54.500Z,99.90
2022-09-24T17:47:21.394Z,99.90
2022-09-24T17:49:48.513Z,99.90
2022-09-24T17:52:16.701Z,99.90
2022-09-24T17:54:44.821Z,99.90
2022-09-24T17:57:11.874Z,99.90
2022-09-24T17:59:38.799Z,99.90
2022-09-24T18:02:06.803Z,99.90
2022-09-24T18:04:38.254Z,99.90
2022-09-24T18:07:05.689Z,99.90
2022-09-24T18:09:32.651Z,99.90
2022-09-24T18:11:59.568Z,99.90
2022-09-24T18:14:27.026Z,99.90
2022-09-24T18:16:53.941Z,99.90
2022-09-24T18:19:21.094Z,99.90
2022-09-24T18:21:49.784Z,99.90
2022-09-24T18:24:17.298Z,99.90
2022-09-24T18:26:45.327Z,99.90
2022-09-24T18:29:15.711Z,99.90
2022-09-24T18:31:44.047Z,99.90
2022-09-24T18:34:15.625Z,99.90
2022-09-24T18:36:44.526Z,99.90
2022-09-24T18:39:17.659Z,99.90
2022-09-24T18:41:47.419Z,99.90
2022-09-24T18:44:14.359Z,99.90
2022-09-24T18:46:42.080Z,99.90
2022-09-24T18:49:10.927Z,99.90
2022-09-24T18:51:38.534Z,99.90
2022-09-24T18:54:08.413Z,99.90
2022-09-24T18:56:36.424Z,99.90
2022-09-24T18:59:09.616Z,99.90
2022-09-24T19:01:38.975Z,99.90
2022-09-24T19:04:07.959Z,99.90
2022-09-24T19:06:36.490Z,99.90
2022-09-24T19:09:05.084Z,99.90
2022-09-24T19:11:34.116Z,99.90
2022-09-24T19:14:04.571Z,99.90
2022-09-24T19:16:32.491Z,99.90
2022-09-24T19:19:01.333Z,99.90
2022-09-24T19:21:28.607Z,99.90
2022-09-24T19:23:57.554Z,99.90
2022-09-24T19:26:27.158Z,99.90
2022-09-24T19:28:54.110Z,99.90
2022-09-24T19:31:33.208Z,99.90
2022-09-24T19:34:04.373Z,99.90
2022-09-24T19:36:37.432Z,99.90
2022-09-24T19:39:10.164Z,99.90
2022-09-24T19:41:37.753Z,99.90
2022-09-24T19:44:08.774Z,99.90
2022-09-24T19:46:38.660Z,99.90
2022-09-24T19:49:06.257Z,99.90
2022-09-24T19:51:34.405Z,99.90
2022-09-24T19:54:04.319Z,99.90
2022-09-24T19:56:32.139Z,99.90
2022-09-24T19:59:01.440Z,99.90
2022-09-24T20:01:31.369Z,99.90
2022-09-24T20:04:00.334Z,99.90
2022-09-24T20:06:31.360Z,99.90
2022-09-24T20:08:59.353Z,99.90
2022-09-24T20:11:29.333Z,99.90
2022-09-24T20:13:56.611Z,99.90
2022-09-24T20:16:26.366Z,99.90
2022-09-24T20:18:57.417Z,99.90
2022-09-24T20:21:29.183Z,99.90
2022-09-24T20:23:57.948Z,99.90
2022-09-24T20:26:44.642Z,99.90
2022-09-24T20:29:13.906Z,99.90
2022-09-24T20:31:42.624Z,99.90
2022-09-24T20:34:09.624Z,99.90
2022-09-24T20:36:36.997Z,99.90
2022-09-24T20:39:04.263Z,99.90
2022-09-24T20:41:31.257Z,99.90
2022-09-24T20:43:58.460Z,99.90
2022-09-24T20:46:27.754Z,99.90
2022-09-24T20:48:59.136Z,99.90
2022-09-24T20:51:28.953Z,99.90
2022-09-24T20:53:56.446Z,99.90
2022-09-24T20:56:23.377Z,99.90
2022-09-24T20:58:52.263Z,99.90
2022-09-24T21:01:20.926Z,99.90
2022-09-24T21:03:50.166Z,99.90
2022-09-24T21:06:20.762Z,99.90
2022-09-24T21:08:48.155Z,99.90
2022-09-24T21:11:21.611Z,99.90
2022-09-24T21:13:51.035Z,99.90
2022-09-24T21:16:21.197Z,99.90
2022-09-24T21:18:49.745Z,99.90
2022-09-24T21:21:17.954Z,99.90
2022-09-24T21:23:47.099Z,99.90
2022-09-24T21:26:18.577Z,99.90
2022-09-24T21:28:56.372Z,99.90
2022-09-24T21:31:26.326Z,99.90
2022-09-24T21:33:53.829Z,99.90
2022-09-24T21:36:24.300Z,99.90
2022-09-24T21:38:54.288Z,99.90
2022-09-24T21:41:23.129Z,99.90
2022-09-24T21:43:50.148Z,99.90
2022-09-24T21:46:17.343Z,99.90
2022-09-24T21:48:44.266Z,99.90
2022-09-24T21:51:14.109Z,99.90
2022-09-24T21:53:41.263Z,99.90
2022-09-24T21:56:08.667Z,99.90
2022-09-24T21:58:35.600Z,99.90
2022-09-24T22:01:14.023Z,99.90
2022-09-24T22:03:41.005Z,99.90
2022-09-24T22:06:08.527Z,99.90
2022-09-24T22:08:35.418Z,99.90
2022-09-24T22:11:08.294Z,99.90
2022-09-24T22:13:39.040Z,99.90
2022-09-24T22:16:07.793Z,99.90
2022-09-24T22:18:36.081Z,99.90
2022-09-24T22:21:09.035Z,99.90
2022-09-24T22:23:36.557Z,99.90
2022-09-24T22:26:04.269Z,99.90
2022-09-24T22:28:31.930Z,99.90
2022-09-24T22:31:02.967Z,99.90
2022-09-24T22:33:49.501Z,99.90
2022-09-24T22:36:16.719Z,99.90
2022-09-24T22:38:43.777Z,99.90
2022-09-24T22:41:12.108Z,99.90
2022-09-24T22:43:39.751Z,99.90
2022-09-24T22:46:11.709Z,99.90
2022-09-24T22:48:39.852Z,99.90
2022-09-24T22:51:09.135Z,99.90
2022-09-24T22:53:39.136Z,99.90
2022-09-24T22:56:08.951Z,99.90
2022-09-24T22:58:36.995Z,99.90
2022-09-24T23:01:11.014Z,99.90
2022-09-24T23:03:38.621Z,99.90
2022-09-24T23:06:07.232Z,99.90
2022-09-24T23:08:36.139Z,99.90
2022-09-24T23:11:09.100Z,99.90
2022-09-24T23:13:36.954Z,99.90
2022-09-24T23:16:15.497Z,99.90
2022-09-24T23:18:44.471Z,99.90
2022-09-24T23:21:15.807Z,99.90
2022-09-24T23:23:43.389Z,99.90
2022-09-24T23:26:16.923Z,99.90
2022-09-24T23:28:46.030Z,99.90
2022-09-24T23:31:14.583Z,99.90
2022-09-24T23:33:42.889Z,99.90
2022-09-24T23:36:11.941Z,99.90
2022-09-24T23:38:39.425Z,99.90
2022-09-24T23:41:07.644Z,99.90
2022-09-24T23:43:36.013Z,99.90
2022-09-24T23:46:03.714Z,99.90
2022-09-24T23:48:31.646Z,99.90
2022-09-24T23:51:00.352Z,99.90
2022-09-24T23:53:27.770Z,99.90
2022-09-24T23:55:55.296Z,99.90
2022-09-24T23:58:24.111Z,99.90
